sensor_id;sensor_type;location;lat;lon;timestamp;pressure;altitude;pressure_sealevel;temperature;humidity
70925;BME280;58577;52.410;13.242;2023-02-11T00:02:30;-12627.97;;;17.05;nan
70925;BME280;58577;52.410;13.242;2023-02-11T00:05:16;-12627.88;;;17.04;nan
70925;BME280;58577;52.410;13.242;2023-02-11T00:08:02;-12628.50;;;17.08;nan
70925;BME280;58577;52.410;13.242;2023-02-11T00:10:55;-12627.81;;;17.04;nan
70925;BME280;58577;52.410;13.242;2023-02-11T00:13:43;-12627.72;;;17.03;nan
70925;BME280;58577;52.410;13.242;2023-02-11T00:16:29;-12627.63;;;17.03;nan
70925;BME280;58577;52.410;13.242;2023-02-11T00:19:16;-12627.81;;;17.04;nan
70925;BME280;58577;52.410;13.242;2023-02-11T00:22:02;-12627.72;;;17.03;nan
70925;BME280;58577;52.410;13.242;2023-02-11T00:24:48;-12627.44;;;17.02;nan
70925;BME280;58577;52.410;13.242;2023-02-11T00:27:35;-12628.16;;;17.06;nan
70925;BME280;58577;52.410;13.242;2023-02-11T00:30:21;-12627.72;;;17.03;nan
70925;BME280;58577;52.410;13.242;2023-02-11T00:33:07;-12628.34;;;17.07;nan
70925;BME280;58577;52.410;13.242;2023-02-11T00:35:53;-12628.94;;;17.10;nan
70925;BME280;58577;52.410;13.242;2023-02-11T00:38:39;-12628.06;;;17.05;nan
70925;BME280;58577;52.410;13.242;2023-02-11T00:41:27;-12628.59;;;17.08;nan
70925;BME280;58577;52.410;13.242;2023-02-11T00:44:13;-12628.41;;;17.07;nan
70925;BME280;58577;52.410;13.242;2023-02-11T00:46:58;-12627.97;;;17.05;nan
70925;BME280;58577;52.410;13.242;2023-02-11T00:49:44;-12628.78;;;17.09;nan
70925;BME280;58577;52.410;13.242;2023-02-11T00:52:31;-12627.44;;;17.02;nan
70925;BME280;58577;52.410;13.242;2023-02-11T00:55:16;-12628.06;;;17.05;nan
70925;BME280;58577;52.410;13.242;2023-02-11T00:58:02;-12628.59;;;17.08;nan
70925;BME280;58577;52.410;13.242;2023-02-11T01:00:48;-12628.94;;;17.10;nan
70925;BME280;58577;52.410;13.242;2023-02-11T01:03:34;-12628.78;;;17.09;nan
70925;BME280;58577;52.410;13.242;2023-02-11T01:06:20;-12628.41;;;17.07;nan
70925;BME280;58577;52.410;13.242;2023-02-11T01:09:05;-12627.81;;;17.04;nan
70925;BME280;58577;52.410;13.242;2023-02-11T01:11:54;-12627.97;;;17.05;nan
70925;BME280;58577;52.410;13.242;2023-02-11T01:14:39;-12627.34;;;17.01;nan
70925;BME280;58577;52.410;13.242;2023-02-11T01:17:25;-12626.81;;;16.98;nan
70925;BME280;58577;52.410;13.242;2023-02-11T01:20:19;-12626.56;;;16.97;nan
70925;BME280;58577;52.410;13.242;2023-02-11T01:23:05;-12625.94;;;16.93;nan
70925;BME280;58577;52.410;13.242;2023-02-11T01:25:51;-12625.59;;;16.91;nan
70925;BME280;58577;52.410;13.242;2023-02-11T01:28:37;-12625.69;;;16.92;nan
70925;BME280;58577;52.410;13.242;2023-02-11T01:31:23;-12625.22;;;16.89;nan
70925;BME280;58577;52.410;13.242;2023-02-11T01:34:08;-12625.22;;;16.89;nan
70925;BME280;58577;52.410;13.242;2023-02-11T01:36:59;-12624.78;;;16.86;nan
70925;BME280;58577;52.410;13.242;2023-02-11T01:39:47;-12624.69;;;16.86;nan
70925;BME280;58577;52.410;13.242;2023-02-11T01:42:33;-12624.88;;;16.87;nan
70925;BME280;58577;52.410;13.242;2023-02-11T01:48:34;-12625.78;;;16.92;nan
70925;BME280;58577;52.410;13.242;2023-02-11T01:51:24;-12626.66;;;16.97;nan
70925;BME280;58577;52.410;13.242;2023-02-11T01:54:15;-12626.38;;;16.96;nan
70925;BME280;58577;52.410;13.242;2023-02-11T01:57:23;-12626.66;;;16.97;nan
70925;BME280;58577;52.410;13.242;2023-02-11T02:03:11;-12626.91;;;16.99;nan
70925;BME280;58577;52.410;13.242;2023-02-11T02:06:04;-12626.81;;;16.98;nan
70925;BME280;58577;52.410;13.242;2023-02-11T02:08:56;-12627.28;;;17.01;nan
70925;BME280;58577;52.410;13.242;2023-02-11T02:11:44;-12627.53;;;17.02;nan
70925;BME280;58577;52.410;13.242;2023-02-11T02:14:30;-12627.97;;;17.05;nan
70925;BME280;58577;52.410;13.242;2023-02-11T02:17:43;-12627.72;;;17.03;nan
70925;BME280;58577;52.410;13.242;2023-02-11T02:23:56;-12627.53;;;17.02;nan
70925;BME280;58577;52.410;13.242;2023-02-11T02:36:30;-12626.66;;;16.97;nan
70925;BME280;58577;52.410;13.242;2023-02-11T02:39:23;-12626.13;;;16.94;nan
70925;BME280;58577;52.410;13.242;2023-02-11T02:42:11;-12626.75;;;16.98;nan
70925;BME280;58577;52.410;13.242;2023-02-11T02:44:57;-12626.75;;;16.98;nan
70925;BME280;58577;52.410;13.242;2023-02-11T02:47:43;-12626.13;;;16.94;nan
70925;BME280;58577;52.410;13.242;2023-02-11T02:50:35;-12626.13;;;16.94;nan
70925;BME280;58577;52.410;13.242;2023-02-11T02:53:44;-12626.03;;;16.94;nan
70925;BME280;58577;52.410;13.242;2023-02-11T02:56:50;-12626.47;;;16.96;nan
70925;BME280;58577;52.410;13.242;2023-02-11T03:05:42;-12625.94;;;16.93;nan
70925;BME280;58577;52.410;13.242;2023-02-11T03:08:45;-12626.28;;;16.95;nan
70925;BME280;58577;52.410;13.242;2023-02-11T03:11:34;-12626.13;;;16.94;nan
70925;BME280;58577;52.410;13.242;2023-02-11T03:14:23;-12626.03;;;16.94;nan
70925;BME280;58577;52.410;13.242;2023-02-11T03:17:13;-12626.56;;;16.97;nan
70925;BME280;58577;52.410;13.242;2023-02-11T03:20:02;-12627.44;;;17.02;nan
70925;BME280;58577;52.410;13.242;2023-02-11T03:23:01;-12626.81;;;16.98;nan
70925;BME280;58577;52.410;13.242;2023-02-11T03:25:52;-12626.91;;;16.99;nan
70925;BME280;58577;52.410;13.242;2023-02-11T03:28:50;-12627.09;;;17.00;nan
70925;BME280;58577;52.410;13.242;2023-02-11T03:31:46;-12626.91;;;16.99;nan
70925;BME280;58577;52.410;13.242;2023-02-11T03:34:46;-12627.53;;;17.02;nan
70925;BME280;58577;52.410;13.242;2023-02-11T03:37:44;-12626.81;;;16.98;nan
70925;BME280;58577;52.410;13.242;2023-02-11T03:40:38;-12627.19;;;17.00;nan
70925;BME280;58577;52.410;13.242;2023-02-11T03:43:37;-12626.91;;;16.99;nan
70925;BME280;58577;52.410;13.242;2023-02-11T03:46:31;-12627.00;;;16.99;nan
70925;BME280;58577;52.410;13.242;2023-02-11T03:49:20;-12627.09;;;17.00;nan
70925;BME280;58577;52.410;13.242;2023-02-11T03:52:07;-12626.66;;;16.97;nan
70925;BME280;58577;52.410;13.242;2023-02-11T03:54:57;-12627.34;;;17.01;nan
70925;BME280;58577;52.410;13.242;2023-02-11T03:57:46;-12627.34;;;17.01;nan
70925;BME280;58577;52.410;13.242;2023-02-11T04:00:34;-12627.63;;;17.03;nan
70925;BME280;58577;52.410;13.242;2023-02-11T04:03:21;-12627.53;;;17.02;nan
70925;BME280;58577;52.410;13.242;2023-02-11T04:06:07;-12627.88;;;17.04;nan
70925;BME280;58577;52.410;13.242;2023-02-11T04:08:53;-12627.63;;;17.03;nan
70925;BME280;58577;52.410;13.242;2023-02-11T04:11:38;-12627.19;;;17.00;nan
70925;BME280;58577;52.410;13.242;2023-02-11T04:14:24;-12626.47;;;16.96;nan
70925;BME280;58577;52.410;13.242;2023-02-11T04:17:11;-12625.94;;;16.93;nan
70925;BME280;58577;52.410;13.242;2023-02-11T04:19:57;-12626.47;;;16.96;nan
70925;BME280;58577;52.410;13.242;2023-02-11T04:22:42;-12627.28;;;17.01;nan
70925;BME280;58577;52.410;13.242;2023-02-11T04:25:28;-12626.91;;;16.99;nan
70925;BME280;58577;52.410;13.242;2023-02-11T04:28:14;-12626.81;;;16.98;nan
70925;BME280;58577;52.410;13.242;2023-02-11T04:31:00;-12627.44;;;17.02;nan
70925;BME280;58577;52.410;13.242;2023-02-11T04:33:45;-12627.28;;;17.01;nan
70925;BME280;58577;52.410;13.242;2023-02-11T04:36:31;-12627.09;;;17.00;nan
70925;BME280;58577;52.410;13.242;2023-02-11T04:39:17;-12627.63;;;17.03;nan
70925;BME280;58577;52.410;13.242;2023-02-11T04:42:04;-12627.34;;;17.01;nan
70925;BME280;58577;52.410;13.242;2023-02-11T04:44:50;-12627.81;;;17.04;nan
70925;BME280;58577;52.410;13.242;2023-02-11T04:47:35;-12627.72;;;17.03;nan
70925;BME280;58577;52.410;13.242;2023-02-11T04:50:22;-12627.63;;;17.03;nan
70925;BME280;58577;52.410;13.242;2023-02-11T04:53:08;-12627.44;;;17.02;nan
70925;BME280;58577;52.410;13.242;2023-02-11T04:55:54;-12627.97;;;17.05;nan
70925;BME280;58577;52.410;13.242;2023-02-11T04:58:39;-12627.63;;;17.03;nan
70925;BME280;58577;52.410;13.242;2023-02-11T05:01:25;-12627.81;;;17.04;nan
70925;BME280;58577;52.410;13.242;2023-02-11T05:04:11;-12628.78;;;17.09;nan
70925;BME280;58577;52.410;13.242;2023-02-11T05:06:57;-12628.25;;;17.06;nan
70925;BME280;58577;52.410;13.242;2023-02-11T05:09:42;-12628.78;;;17.09;nan
70925;BME280;58577;52.410;13.242;2023-02-11T05:12:28;-12629.13;;;17.12;nan
70925;BME280;58577;52.410;13.242;2023-02-11T05:15:14;-12628.88;;;17.10;nan
70925;BME280;58577;52.410;13.242;2023-02-11T05:18:00;-12627.97;;;17.05;nan
70925;BME280;58577;52.410;13.242;2023-02-11T05:20:46;-12627.72;;;17.03;nan
70925;BME280;58577;52.410;13.242;2023-02-11T05:23:32;-12627.81;;;17.04;nan
70925;BME280;58577;52.410;13.242;2023-02-11T05:26:18;-12627.44;;;17.02;nan
70925;BME280;58577;52.410;13.242;2023-02-11T05:29:04;-12626.91;;;16.99;nan
70925;BME280;58577;52.410;13.242;2023-02-11T05:31:50;-12626.47;;;16.96;nan
70925;BME280;58577;52.410;13.242;2023-02-11T05:34:36;-12626.56;;;16.97;nan
70925;BME280;58577;52.410;13.242;2023-02-11T05:37:22;-12626.81;;;16.98;nan
70925;BME280;58577;52.410;13.242;2023-02-11T05:40:08;-12625.94;;;16.93;nan
70925;BME280;58577;52.410;13.242;2023-02-11T05:42:54;-12625.78;;;16.92;nan
70925;BME280;58577;52.410;13.242;2023-02-11T05:45:39;-12625.94;;;16.93;nan
70925;BME280;58577;52.410;13.242;2023-02-11T05:48:25;-12626.81;;;16.98;nan
70925;BME280;58577;52.410;13.242;2023-02-11T05:51:11;-12627.19;;;17.00;nan
70925;BME280;58577;52.410;13.242;2023-02-11T05:53:57;-12627.28;;;17.01;nan
70925;BME280;58577;52.410;13.242;2023-02-11T05:56:42;-12626.75;;;16.98;nan
70925;BME280;58577;52.410;13.242;2023-02-11T05:59:28;-12627.28;;;17.01;nan
70925;BME280;58577;52.410;13.242;2023-02-11T06:02:14;-12627.00;;;16.99;nan
70925;BME280;58577;52.410;13.242;2023-02-11T06:05:00;-12626.47;;;16.96;nan
70925;BME280;58577;52.410;13.242;2023-02-11T06:07:46;-12626.75;;;16.98;nan
70925;BME280;58577;52.410;13.242;2023-02-11T06:10:31;-12626.47;;;16.96;nan
70925;BME280;58577;52.410;13.242;2023-02-11T06:13:17;-12627.28;;;17.01;nan
70925;BME280;58577;52.410;13.242;2023-02-11T06:16:04;-12627.34;;;17.01;nan
70925;BME280;58577;52.410;13.242;2023-02-11T06:18:50;-12627.97;;;17.05;nan
70925;BME280;58577;52.410;13.242;2023-02-11T06:21:35;-12628.34;;;17.07;nan
70925;BME280;58577;52.410;13.242;2023-02-11T06:24:21;-12627.97;;;17.05;nan
70925;BME280;58577;52.410;13.242;2023-02-11T06:27:08;-12628.25;;;17.06;nan
70925;BME280;58577;52.410;13.242;2023-02-11T06:29:53;-12628.94;;;17.10;nan
70925;BME280;58577;52.410;13.242;2023-02-11T06:32:39;-12629.03;;;17.11;nan
70925;BME280;58577;52.410;13.242;2023-02-11T06:35:25;-12629.56;;;17.14;nan
70925;BME280;58577;52.410;13.242;2023-02-11T06:38:11;-12629.75;;;17.15;nan
70925;BME280;58577;52.410;13.242;2023-02-11T06:40:56;-12629.66;;;17.15;nan
70925;BME280;58577;52.410;13.242;2023-02-11T06:43:42;-12629.91;;;17.16;nan
70925;BME280;58577;52.410;13.242;2023-02-11T06:46:28;-12629.75;;;17.15;nan
70925;BME280;58577;52.410;13.242;2023-02-11T06:49:14;-12629.13;;;17.12;nan
70925;BME280;58577;52.410;13.242;2023-02-11T06:51:59;-12628.94;;;17.10;nan
70925;BME280;58577;52.410;13.242;2023-02-11T06:54:45;-12627.88;;;17.04;nan
70925;BME280;58577;52.410;13.242;2023-02-11T06:57:31;-12628.06;;;17.05;nan
70925;BME280;58577;52.410;13.242;2023-02-11T07:00:17;-12627.72;;;17.03;nan
70925;BME280;58577;52.410;13.242;2023-02-11T07:03:03;-12627.81;;;17.04;nan
70925;BME280;58577;52.410;13.242;2023-02-11T07:05:49;-12627.53;;;17.02;nan
70925;BME280;58577;52.410;13.242;2023-02-11T07:08:36;-12627.34;;;17.01;nan
70925;BME280;58577;52.410;13.242;2023-02-11T07:11:24;-12624.63;;;16.85;nan
70925;BME280;58577;52.410;13.242;2023-02-11T07:14:10;-12626.22;;;16.95;nan
70925;BME280;58577;52.410;13.242;2023-02-11T07:16:58;-12625.84;;;16.93;nan
70925;BME280;58577;52.410;13.242;2023-02-11T07:19:43;-12625.31;;;16.89;nan
70925;BME280;58577;52.410;13.242;2023-02-11T07:22:29;-12625.78;;;16.92;nan
70925;BME280;58577;52.410;13.242;2023-02-11T07:25:15;-12626.13;;;16.94;nan
70925;BME280;58577;52.410;13.242;2023-02-11T07:28:02;-12625.78;;;16.92;nan
70925;BME280;58577;52.410;13.242;2023-02-11T07:30:48;-12626.66;;;16.97;nan
70925;BME280;58577;52.410;13.242;2023-02-11T07:33:35;-12628.06;;;17.05;nan
70925;BME280;58577;52.410;13.242;2023-02-11T07:36:21;-12627.72;;;17.03;nan
70925;BME280;58577;52.410;13.242;2023-02-11T07:39:07;-12627.97;;;17.05;nan
70925;BME280;58577;52.410;13.242;2023-02-11T07:41:53;-12627.72;;;17.03;nan
70925;BME280;58577;52.410;13.242;2023-02-11T07:44:39;-12628.50;;;17.08;nan
70925;BME280;58577;52.410;13.242;2023-02-11T07:47:25;-12628.41;;;17.07;nan
70925;BME280;58577;52.410;13.242;2023-02-11T07:50:11;-12628.06;;;17.05;nan
70925;BME280;58577;52.410;13.242;2023-02-11T07:52:56;-12628.50;;;17.08;nan
70925;BME280;58577;52.410;13.242;2023-02-11T07:55:42;-12629.56;;;17.14;nan
70925;BME280;58577;52.410;13.242;2023-02-11T07:58:28;-12628.16;;;17.06;nan
70925;BME280;58577;52.410;13.242;2023-02-11T08:01:21;-12628.94;;;17.10;nan
70925;BME280;58577;52.410;13.242;2023-02-11T08:04:09;-12629.13;;;17.12;nan
70925;BME280;58577;52.410;13.242;2023-02-11T08:06:55;-12628.88;;;17.10;nan
70925;BME280;58577;52.410;13.242;2023-02-11T08:09:41;-12577.69;;;14.14;nan
70925;BME280;58577;52.410;13.242;2023-02-11T08:12:27;-12551.31;;;12.62;nan
70925;BME280;58577;52.410;13.242;2023-02-11T08:15:13;-12541.25;;;12.04;nan
70925;BME280;58577;52.410;13.242;2023-02-11T08:18:02;-12550.06;;;12.55;nan
70925;BME280;58577;52.410;13.242;2023-02-11T08:20:48;-12578.66;;;14.20;nan
70925;BME280;58577;52.410;13.242;2023-02-11T08:23:41;-12595.81;;;15.19;nan
70925;BME280;58577;52.410;13.242;2023-02-11T08:26:29;-12605.22;;;15.73;nan
70925;BME280;58577;52.410;13.242;2023-02-11T08:29:16;-12611.31;;;16.08;nan
70925;BME280;58577;52.410;13.242;2023-02-11T08:32:02;-12614.59;;;16.27;nan
70925;BME280;58577;52.410;13.242;2023-02-11T08:34:51;-12617.25;;;16.43;nan
70925;BME280;58577;52.410;13.242;2023-02-11T08:37:37;-12618.84;;;16.52;nan
70925;BME280;58577;52.410;13.242;2023-02-11T08:40:23;-12619.84;;;16.58;nan
70925;BME280;58577;52.410;13.242;2023-02-11T08:43:09;-12620.91;;;16.64;nan
70925;BME280;58577;52.410;13.242;2023-02-11T08:45:55;-12621.44;;;16.67;nan
70925;BME280;58577;52.410;13.242;2023-02-11T08:48:42;-12623.03;;;16.76;nan
70925;BME280;58577;52.410;13.242;2023-02-11T08:51:28;-12623.19;;;16.77;nan
70925;BME280;58577;52.410;13.242;2023-02-11T08:54:17;-12623.47;;;16.79;nan
70925;BME280;58577;52.410;13.242;2023-02-11T08:57:03;-12623.72;;;16.80;nan
70925;BME280;58577;52.410;13.242;2023-02-11T08:59:49;-12623.19;;;16.77;nan
70925;BME280;58577;52.410;13.242;2023-02-11T09:02:35;-12624.63;;;16.85;nan
70925;BME280;58577;52.410;13.242;2023-02-11T09:05:21;-12625.59;;;16.91;nan
70925;BME280;58577;52.410;13.242;2023-02-11T09:08:08;-12626.38;;;16.96;nan
70925;BME280;58577;52.410;13.242;2023-02-11T09:10:55;-12627.00;;;16.99;nan
70925;BME280;58577;52.410;13.242;2023-02-11T09:13:42;-12626.91;;;16.99;nan
70925;BME280;58577;52.410;13.242;2023-02-11T09:16:32;-12627.97;;;17.05;nan
70925;BME280;58577;52.410;13.242;2023-02-11T09:19:18;-12627.81;;;17.04;nan
70925;BME280;58577;52.410;13.242;2023-02-11T09:22:04;-12628.94;;;17.10;nan
70925;BME280;58577;52.410;13.242;2023-02-11T09:24:50;-12628.94;;;17.10;nan
70925;BME280;58577;52.410;13.242;2023-02-11T09:27:36;-12630.00;;;17.17;nan
70925;BME280;58577;52.410;13.242;2023-02-11T09:30:21;-12630.09;;;17.17;nan
70925;BME280;58577;52.410;13.242;2023-02-11T09:33:07;-12630.09;;;17.17;nan
70925;BME280;58577;52.410;13.242;2023-02-11T09:35:53;-12630.47;;;17.19;nan
70925;BME280;58577;52.410;13.242;2023-02-11T09:38:39;-12630.38;;;17.19;nan
70925;BME280;58577;52.410;13.242;2023-02-11T09:44:23;-12630.28;;;17.18;nan
70925;BME280;58577;52.410;13.242;2023-02-11T09:47:25;-12630.09;;;17.17;nan
70925;BME280;58577;52.410;13.242;2023-02-11T09:50:15;-12628.59;;;17.08;nan
70925;BME280;58577;52.410;13.242;2023-02-11T09:55:54;-12629.22;;;17.12;nan
70925;BME280;58577;52.410;13.242;2023-02-11T09:58:42;-12629.56;;;17.14;nan
70925;BME280;58577;52.410;13.242;2023-02-11T10:07:42;-12630.97;;;17.22;nan
70925;BME280;58577;52.410;13.242;2023-02-11T10:13:46;-12630.72;;;17.21;nan
70925;BME280;58577;52.410;13.242;2023-02-11T10:22:51;-12630.91;;;17.22;nan
70925;BME280;58577;52.410;13.242;2023-02-11T10:25:46;-12631.59;;;17.26;nan
70925;BME280;58577;52.410;13.242;2023-02-11T10:28:34;-12630.63;;;17.20;nan
70925;BME280;58577;52.410;13.242;2023-02-11T10:31:47;-12629.75;;;17.15;nan
70925;BME280;58577;52.410;13.242;2023-02-11T10:34:40;-12629.47;;;17.14;nan
70925;BME280;58577;52.410;13.242;2023-02-11T10:37:26;-12629.38;;;17.13;nan
70925;BME280;58577;52.410;13.242;2023-02-11T10:40:17;-12630.19;;;17.18;nan
70925;BME280;58577;52.410;13.242;2023-02-11T10:43:09;-12630.91;;;17.22;nan
70925;BME280;58577;52.410;13.242;2023-02-11T10:45:56;-12630.47;;;17.19;nan
70925;BME280;58577;52.410;13.242;2023-02-11T10:48:45;-12630.81;;;17.21;nan
70925;BME280;58577;52.410;13.242;2023-02-11T10:51:33;-12630.91;;;17.22;nan
70925;BME280;58577;52.410;13.242;2023-02-11T10:54:19;-12631.06;;;17.23;nan
70925;BME280;58577;52.410;13.242;2023-02-11T10:57:06;-12632.03;;;17.28;nan
70925;BME280;58577;52.410;13.242;2023-02-11T11:00:32;-12632.41;;;17.30;nan
70925;BME280;58577;52.410;13.242;2023-02-11T11:03:23;-12632.13;;;17.29;nan
70925;BME280;58577;52.410;13.242;2023-02-11T11:06:10;-12631.69;;;17.26;nan
70925;BME280;58577;52.410;13.242;2023-02-11T11:08:57;-12632.13;;;17.29;nan
70925;BME280;58577;52.410;13.242;2023-02-11T11:11:51;-12632.31;;;17.30;nan
70925;BME280;58577;52.410;13.242;2023-02-11T11:14:38;-12631.59;;;17.26;nan
70925;BME280;58577;52.410;13.242;2023-02-11T11:17:24;-12631.59;;;17.26;nan
70925;BME280;58577;52.410;13.242;2023-02-11T11:20:23;-12631.69;;;17.26;nan
70925;BME280;58577;52.410;13.242;2023-02-11T11:23:20;-12630.97;;;17.22;nan
70925;BME280;58577;52.410;13.242;2023-02-11T11:26:12;-12631.06;;;17.23;nan
70925;BME280;58577;52.410;13.242;2023-02-11T11:29:01;-12630.97;;;17.22;nan
70925;BME280;58577;52.410;13.242;2023-02-11T11:32:05;-12630.72;;;17.21;nan
70925;BME280;58577;52.410;13.242;2023-02-11T11:34:59;-12630.97;;;17.22;nan
70925;BME280;58577;52.410;13.242;2023-02-11T11:38:13;-12630.53;;;17.20;nan
70925;BME280;58577;52.410;13.242;2023-02-11T11:41:17;-12631.16;;;17.23;nan
70925;BME280;58577;52.410;13.242;2023-02-11T11:44:22;-12630.53;;;17.20;nan
70925;BME280;58577;52.410;13.242;2023-02-11T11:55:49;-12630.72;;;17.21;nan
70925;BME280;58577;52.410;13.242;2023-02-11T11:58:38;-12630.09;;;17.17;nan
70925;BME280;58577;52.410;13.242;2023-02-11T12:05:00;-12629.75;;;17.15;nan
70925;BME280;58577;52.410;13.242;2023-02-11T12:16:55;-12628.16;;;17.06;nan
70925;BME280;58577;52.410;13.242;2023-02-11T12:20:03;-12628.06;;;17.05;nan
70925;BME280;58577;52.410;13.242;2023-02-11T12:23:20;-12628.50;;;17.08;nan
70925;BME280;58577;52.410;13.242;2023-02-11T12:26:20;-12628.41;;;17.07;nan
70925;BME280;58577;52.410;13.242;2023-02-11T12:32:36;-12628.41;;;17.07;nan
70925;BME280;58577;52.410;13.242;2023-02-11T12:41:37;-12628.88;;;17.10;nan
70925;BME280;58577;52.410;13.242;2023-02-11T12:53:54;-12629.66;;;17.15;nan
70925;BME280;58577;52.410;13.242;2023-02-11T12:56:59;-12630.53;;;17.20;nan
70925;BME280;58577;52.410;13.242;2023-02-11T13:06:24;-12630.97;;;17.22;nan
70925;BME280;58577;52.410;13.242;2023-02-11T13:09:25;-12631.59;;;17.26;nan
70925;BME280;58577;52.410;13.242;2023-02-11T13:12:13;-12630.47;;;17.19;nan
70925;BME280;58577;52.410;13.242;2023-02-11T13:15:17;-12632.13;;;17.29;nan
70925;BME280;58577;52.410;13.242;2023-02-11T13:18:16;-12631.69;;;17.26;nan
70925;BME280;58577;52.410;13.242;2023-02-11T13:27:23;-12633.63;;;17.38;nan
70925;BME280;58577;52.410;13.242;2023-02-11T13:38:53;-12632.66;;;17.32;nan
70925;BME280;58577;52.410;13.242;2023-02-11T13:41:40;-12632.22;;;17.29;nan
70925;BME280;58577;52.410;13.242;2023-02-11T13:44:26;-12631.59;;;17.26;nan
70925;BME280;58577;52.410;13.242;2023-02-11T13:47:28;-12631.25;;;17.24;nan
70925;BME280;58577;52.410;13.242;2023-02-11T13:50:23;-12631.44;;;17.25;nan
70925;BME280;58577;52.410;13.242;2023-02-11T13:53:09;-12630.91;;;17.22;nan
70925;BME280;58577;52.410;13.242;2023-02-11T13:56:08;-12630.47;;;17.19;nan
70925;BME280;58577;52.410;13.242;2023-02-11T13:58:55;-12629.38;;;17.13;nan
70925;BME280;58577;52.410;13.242;2023-02-11T14:08:23;-12629.31;;;17.13;nan
70925;BME280;58577;52.410;13.242;2023-02-11T14:14:28;-12629.84;;;17.16;nan
70925;BME280;58577;52.410;13.242;2023-02-11T14:17:16;-12630.00;;;17.17;nan
70925;BME280;58577;52.410;13.242;2023-02-11T14:20:32;-12630.53;;;17.20;nan
70925;BME280;58577;52.410;13.242;2023-02-11T14:23:22;-12631.06;;;17.23;nan
70925;BME280;58577;52.410;13.242;2023-02-11T14:26:24;-12630.91;;;17.22;nan
70925;BME280;58577;52.410;13.242;2023-02-11T14:35:37;-12631.16;;;17.23;nan
70925;BME280;58577;52.410;13.242;2023-02-11T14:41:22;-12630.91;;;17.22;nan
70925;BME280;58577;52.410;13.242;2023-02-11T14:44:29;-12632.13;;;17.29;nan
70925;BME280;58577;52.410;13.242;2023-02-11T14:47:24;-12631.59;;;17.26;nan
70925;BME280;58577;52.410;13.242;2023-02-11T14:50:30;-12631.78;;;17.27;nan
70925;BME280;58577;52.410;13.242;2023-02-11T14:53:22;-12628.41;;;17.07;nan
70925;BME280;58577;52.410;13.242;2023-02-11T14:56:23;-12629.13;;;17.12;nan
70925;BME280;58577;52.410;13.242;2023-02-11T14:59:21;-12631.06;;;17.23;nan
70925;BME280;58577;52.410;13.242;2023-02-11T15:02:22;-12630.38;;;17.19;nan
70925;BME280;58577;52.410;13.242;2023-02-11T15:05:17;-12630.97;;;17.22;nan
70925;BME280;58577;52.410;13.242;2023-02-11T15:08:04;-12626.47;;;16.96;nan
70925;BME280;58577;52.410;13.242;2023-02-11T15:10:50;-12621.50;;;16.67;nan
70925;BME280;58577;52.410;13.242;2023-02-11T15:13:38;-12618.94;;;16.52;nan
70925;BME280;58577;52.410;13.242;2023-02-11T15:16:29;-12621.06;;;16.65;nan
70925;BME280;58577;52.410;13.242;2023-02-11T15:19:38;-12624.78;;;16.86;nan
70925;BME280;58577;52.410;13.242;2023-02-11T15:22:32;-12609.66;;;15.99;nan
70925;BME280;58577;52.410;13.242;2023-02-11T15:25:21;-12587.19;;;14.69;nan
70925;BME280;58577;52.410;13.242;2023-02-11T15:28:22;-12579.28;;;14.23;nan
70925;BME280;58577;52.410;13.242;2023-02-11T15:31:15;-12570.03;;;13.70;nan
70925;BME280;58577;52.410;13.242;2023-02-11T15:34:06;-12570.84;;;13.74;nan
70925;BME280;58577;52.410;13.242;2023-02-11T15:36:52;-12587.09;;;14.68;nan
70925;BME280;58577;52.410;13.242;2023-02-11T15:39:40;-12603.78;;;15.65;nan
70925;BME280;58577;52.410;13.242;2023-02-11T15:42:28;-12613.00;;;16.18;nan
70925;BME280;58577;52.410;13.242;2023-02-11T15:48:23;-12622.03;;;16.70;nan
70925;BME280;58577;52.410;13.242;2023-02-11T15:51:27;-12624.00;;;16.82;nan
70925;BME280;58577;52.410;13.242;2023-02-11T15:54:18;-12624.69;;;16.86;nan
70925;BME280;58577;52.410;13.242;2023-02-11T15:57:07;-12625.06;;;16.88;nan
70925;BME280;58577;52.410;13.242;2023-02-11T15:59:55;-12626.81;;;16.98;nan
70925;BME280;58577;52.410;13.242;2023-02-11T16:02:44;-12627.34;;;17.01;nan
70925;BME280;58577;52.410;13.242;2023-02-11T16:05:33;-12628.16;;;17.06;nan
70925;BME280;58577;52.410;13.242;2023-02-11T16:08:28;-12627.88;;;17.04;nan
70925;BME280;58577;52.410;13.242;2023-02-11T16:11:23;-12628.25;;;17.06;nan
70925;BME280;58577;52.410;13.242;2023-02-11T16:17:26;-12630.19;;;17.18;nan
70925;BME280;58577;52.410;13.242;2023-02-11T16:20:18;-12630.63;;;17.20;nan
70925;BME280;58577;52.410;13.242;2023-02-11T16:23:05;-12630.19;;;17.18;nan
70925;BME280;58577;52.410;13.242;2023-02-11T16:26:05;-12631.97;;;17.28;nan
70925;BME280;58577;52.410;13.242;2023-02-11T16:29:05;-12632.41;;;17.30;nan
70925;BME280;58577;52.410;13.242;2023-02-11T16:31:53;-12632.41;;;17.30;nan
70925;BME280;58577;52.410;13.242;2023-02-11T16:34:39;-12633.56;;;17.37;nan
70925;BME280;58577;52.410;13.242;2023-02-11T16:37:25;-12634.00;;;17.40;nan
70925;BME280;58577;52.410;13.242;2023-02-11T16:40:11;-12634.09;;;17.40;nan
70925;BME280;58577;52.410;13.242;2023-02-11T16:42:57;-12633.91;;;17.39;nan
70925;BME280;58577;52.410;13.242;2023-02-11T16:45:43;-12634.09;;;17.40;nan
70925;BME280;58577;52.410;13.242;2023-02-11T16:48:29;-12633.91;;;17.39;nan
70925;BME280;58577;52.410;13.242;2023-02-11T16:51:15;-12634.16;;;17.41;nan
70925;BME280;58577;52.410;13.242;2023-02-11T16:54:01;-12633.56;;;17.37;nan
70925;BME280;58577;52.410;13.242;2023-02-11T16:56:47;-12635.06;;;17.46;nan
70925;BME280;58577;52.410;13.242;2023-02-11T16:59:32;-12634.59;;;17.43;nan
70925;BME280;58577;52.410;13.242;2023-02-11T17:02:25;-12633.63;;;17.38;nan
70925;BME280;58577;52.410;13.242;2023-02-11T17:05:16;-12632.84;;;17.33;nan
70925;BME280;58577;52.410;13.242;2023-02-11T17:08:03;-12631.50;;;17.25;nan
70925;BME280;58577;52.410;13.242;2023-02-11T17:10:50;-12631.25;;;17.24;nan
70925;BME280;58577;52.410;13.242;2023-02-11T17:13:36;-12630.63;;;17.20;nan